createdAt,value
2019-03-30T00:02:16.422Z,80.60
2019-03-30T00:04:47.744Z,80.90
2019-03-30T00:07:19.408Z,80.90
2019-03-30T00:09:50.906Z,81.20
2019-03-30T00:12:23.140Z,81.20
2019-03-30T00:14:54.478Z,81.00
2019-03-30T00:17:25.637Z,81.10
2019-03-30T00:19:56.742Z,81.40
2019-03-30T00:22:28.158Z,81.50
2019-03-30T00:24:59.354Z,81.60
2019-03-30T00:27:30.995Z,81.80
2019-03-30T00:30:03.194Z,82.00
2019-03-30T00:32:34.683Z,82.10
2019-03-30T00:35:06.223Z,82.20
2019-03-30T00:37:37.794Z,82.50
2019-03-30T00:40:08.998Z,82.30
2019-03-30T00:42:42.183Z,82.20
2019-03-30T00:45:13.413Z,83.50
2019-03-30T00:47:44.838Z,82.80
2019-03-30T00:50:17.841Z,82.90
2019-03-30T00:52:49.355Z,83.10
2019-03-30T00:55:20.768Z,83.00
2019-03-30T00:57:51.912Z,83.20
2019-03-30T01:00:23.500Z,83.50
2019-03-30T01:02:55.006Z,83.50
2019-03-30T01:05:26.253Z,83.80
2019-03-30T01:07:57.677Z,83.70
2019-03-30T01:10:28.885Z,84.10
2019-03-30T01:13:00.476Z,84.00
2019-03-30T01:15:31.997Z,84.10
2019-03-30T01:18:03.273Z,84.50
2019-03-30T01:20:34.559Z,84.60
2019-03-30T01:23:06.360Z,84.80
2019-03-30T01:25:37.795Z,85.10
2019-03-30T01:28:09.286Z,85.40
2019-03-30T01:30:40.959Z,85.50
2019-03-30T01:33:12.495Z,85.40
2019-03-30T01:35:44.186Z,85.60
2019-03-30T01:38:15.530Z,85.80
2019-03-30T01:40:47.284Z,86.20
2019-03-30T01:43:18.433Z,86.20
2019-03-30T01:45:49.829Z,86.30
2019-03-30T01:48:21.193Z,86.70
2019-03-30T01:50:52.642Z,86.70
2019-03-30T01:53:23.824Z,86.80
2019-03-30T01:55:55.238Z,87.00
2019-03-30T01:58:26.427Z,87.10
2019-03-30T02:00:58.080Z,87.20
2019-03-30T02:03:29.818Z,87.30
2019-03-30T02:06:01.330Z,87.60
2019-03-30T02:08:32.639Z,87.80
2019-03-30T02:11:03.665Z,87.70
2019-03-30T02:13:35.108Z,87.90
2019-03-30T02:16:06.276Z,87.80
2019-03-30T02:18:37.734Z,87.90
2019-03-30T02:21:09.354Z,88.30
2019-03-30T02:23:41.163Z,88.10
2019-03-30T02:26:13.588Z,88.40
2019-03-30T02:28:44.803Z,88.70
2019-03-30T02:31:16.188Z,88.70
2019-03-30T02:33:47.704Z,88.60
2019-03-30T02:36:18.915Z,88.80
2019-03-30T02:38:50.360Z,89.00
2019-03-30T02:41:21.675Z,89.10
2019-03-30T02:43:52.769Z,89.30
2019-03-30T02:46:23.998Z,89.40
2019-03-30T02:48:55.453Z,89.70
2019-03-30T02:51:26.637Z,89.80
2019-03-30T02:53:58.989Z,89.90
2019-03-30T02:56:30.347Z,89.50
2019-03-30T02:59:01.597Z,90.00
2019-03-30T03:01:33.589Z,90.00
2019-03-30T03:04:04.829Z,90.10
2019-03-30T03:06:36.079Z,90.30
2019-03-30T03:09:09.337Z,90.20
2019-03-30T03:11:41.210Z,90.40
2019-03-30T03:14:12.443Z,90.30
2019-03-30T03:16:44.128Z,90.40
2019-03-30T03:19:15.663Z,90.50
2019-03-30T03:21:47.992Z,90.50
2019-03-30T03:24:19.418Z,90.60
2019-03-30T03:26:50.611Z,90.50
2019-03-30T03:29:21.868Z,90.60
2019-03-30T03:31:53.427Z,90.70
2019-03-30T03:34:25.874Z,90.80
2019-03-30T03:36:57.071Z,91.10
2019-03-30T03:39:28.659Z,90.80
2019-03-30T03:42:00.174Z,91.00
2019-03-30T03:44:31.422Z,91.10
2019-03-30T03:47:02.958Z,91.10
2019-03-30T03:49:34.096Z,91.10
2019-03-30T03:52:06.172Z,91.30
2019-03-30T03:54:37.655Z,91.30
2019-03-30T03:57:11.887Z,91.50
2019-03-30T03:59:43.630Z,91.50
2019-03-30T04:02:17.099Z,91.50
2019-03-30T04:04:50.648Z,91.60
2019-03-30T04:07:23.796Z,91.60
2019-03-30T04:09:57.838Z,91.70
2019-03-30T04:12:30.912Z,91.70
2019-03-30T04:15:03.874Z,91.70
2019-03-30T04:17:35.867Z,91.80
2019-03-30T04:20:07.886Z,91.80
2019-03-30T04:22:39.379Z,92.00
2019-03-30T04:25:10.870Z,92.10
2019-03-30T04:27:44.017Z,92.20
2019-03-30T04:30:15.283Z,92.10
2019-03-30T04:32:46.451Z,92.20
2019-03-30T04:35:17.916Z,92.20
2019-03-30T04:37:49.326Z,92.30
2019-03-30T04:40:20.803Z,92.30
2019-03-30T04:42:52.457Z,92.20
2019-03-30T04:45:23.724Z,92.40
2019-03-30T04:47:55.131Z,92.60
2019-03-30T04:50:26.663Z,92.30
2019-03-30T04:52:58.078Z,92.50
2019-03-30T04:55:29.487Z,92.40
2019-03-30T04:58:00.793Z,92.50
2019-03-30T05:00:32.631Z,92.50
2019-03-30T05:03:05.083Z,92.60
2019-03-30T05:05:36.354Z,92.70
2019-03-30T05:08:07.903Z,92.70
2019-03-30T05:10:39.447Z,92.70
2019-03-30T05:13:10.871Z,92.80
2019-03-30T05:15:42.080Z,92.80
2019-03-30T05:18:14.104Z,93.00
2019-03-30T05:20:45.426Z,93.10
2019-03-30T05:23:16.905Z,93.00
2019-03-30T05:25:48.443Z,93.10
2019-03-30T05:28:19.697Z,93.10
2019-03-30T05:30:51.054Z,93.40
2019-03-30T05:33:22.511Z,93.00
2019-03-30T05:35:53.759Z,93.10
2019-03-30T05:38:25.316Z,93.20
2019-03-30T05:40:57.083Z,93.10
2019-03-30T05:43:28.623Z,93.20
2019-03-30T05:45:59.814Z,93.30
2019-03-30T05:48:30.960Z,93.30
2019-03-30T05:51:02.497Z,93.40
2019-03-30T05:53:33.825Z,93.30
2019-03-30T05:56:05.260Z,93.40
2019-03-30T05:58:36.439Z,93.50
2019-03-30T06:01:07.872Z,93.40
2019-03-30T06:03:39.587Z,93.60
2019-03-30T06:06:11.192Z,93.60
2019-03-30T06:08:42.615Z,93.50
2019-03-30T06:11:14.295Z,93.60
2019-03-30T06:13:45.492Z,93.40
2019-03-30T06:16:16.935Z,93.30
2019-03-30T06:18:48.558Z,93.40
2019-03-30T06:21:19.837Z,93.30
2019-03-30T06:23:51.086Z,93.20
2019-03-30T06:26:23.005Z,93.30
2019-03-30T06:28:54.428Z,93.30
2019-03-30T06:31:25.659Z,93.40
2019-03-30T06:33:56.739Z,93.30
2019-03-30T06:36:28.630Z,93.60
2019-03-30T06:38:59.679Z,93.40
2019-03-30T06:41:31.100Z,93.40
2019-03-30T06:44:02.274Z,93.40
2019-03-30T06:46:33.723Z,93.30
2019-03-30T06:49:05.343Z,93.40
2019-03-30T06:51:36.846Z,93.40
2019-03-30T06:54:08.555Z,93.20
2019-03-30T06:56:39.862Z,93.20
2019-03-30T06:59:11.582Z,93.00
2019-03-30T07:01:44.368Z,93.10
2019-03-30T07:04:16.239Z,93.00
2019-03-30T07:06:48.722Z,92.90
2019-03-30T07:09:22.963Z,92.90
2019-03-30T07:11:57.088Z,92.80
2019-03-30T07:14:31.221Z,92.70
2019-03-30T07:17:04.890Z,92.50
2019-03-30T07:19:39.710Z,92.40
2019-03-30T07:22:10.998Z,92.20
2019-03-30T07:24:42.371Z,92.10
2019-03-30T07:27:13.647Z,92.00
2019-03-30T07:29:45.032Z,91.90
2019-03-30T07:32:16.187Z,91.70
2019-03-30T07:34:47.514Z,91.50
2019-03-30T07:37:19.016Z,91.30
2019-03-30T07:39:50.188Z,91.20
2019-03-30T07:42:21.608Z,91.00
2019-03-30T07:44:52.815Z,91.20
2019-03-30T07:47:24.218Z,90.90
2019-03-30T07:49:55.343Z,90.30
2019-03-30T07:52:27.015Z,90.10
2019-03-30T07:54:58.698Z,89.70
2019-03-30T07:57:30.302Z,89.30
2019-03-30T08:00:01.954Z,89.50
2019-03-30T08:02:33.831Z,90.10
2019-03-30T08:05:05.318Z,89.30
2019-03-30T08:07:37.110Z,89.50
2019-03-30T08:10:08.319Z,89.50
2019-03-30T08:12:39.634Z,88.40
2019-03-30T08:15:11.693Z,87.90
2019-03-30T08:17:43.356Z,87.10
2019-03-30T08:20:15.038Z,87.10
2019-03-30T08:22:46.322Z,85.90
2019-03-30T08:25:17.824Z,85.30
2019-03-30T08:27:49.061Z,83.00
2019-03-30T08:30:21.603Z,80.10
2019-03-30T08:32:53.015Z,75.80
2019-03-30T08:35:24.730Z,71.10
2019-03-30T08:37:56.534Z,63.50
2019-03-30T08:40:28.163Z,58.70
2019-03-30T08:42:59.508Z,54.50
2019-03-30T08:45:30.797Z,49.60
2019-03-30T08:48:02.002Z,48.50
2019-03-30T08:50:34.526Z,45.60
2019-03-30T08:53:05.649Z,45.60
2019-03-30T08:55:37.130Z,46.30
2019-03-30T08:58:09.086Z,46.80
2019-03-30T09:00:43.991Z,47.20
2019-03-30T09:03:15.471Z,46.70
2019-03-30T09:05:46.843Z,43.20
2019-03-30T09:08:18.450Z,43.60
2019-03-30T09:10:51.540Z,45.00
2019-03-30T09:13:23.383Z,44.50
2019-03-30T09:15:55.168Z,39.80
2019-03-30T09:18:26.332Z,37.70
2019-03-30T09:20:57.756Z,39.20
2019-03-30T09:23:29.022Z,39.90
2019-03-30T09:26:00.051Z,40.80
2019-03-30T09:28:31.582Z,40.40
2019-03-30T09:31:03.352Z,38.40
2019-03-30T09:33:34.546Z,38.30
2019-03-30T09:36:05.804Z,36.30
2019-03-30T09:38:37.033Z,34.70
2019-03-30T09:41:08.441Z,31.50
2019-03-30T09:43:39.971Z,29.90
2019-03-30T09:46:11.486Z,26.70
2019-03-30T09:48:43.074Z,27.00
2019-03-30T09:51:15.965Z,28.40
2019-03-30T09:53:47.210Z,29.40
2019-03-30T09:56:18.482Z,30.50
2019-03-30T09:58:49.866Z,32.80
2019-03-30T10:01:20.975Z,33.30
2019-03-30T10:03:52.697Z,35.90
2019-03-30T10:06:33.784Z,33.90
2019-03-30T10:08:58.097Z,33.90
2019-03-30T10:11:29.338Z,35.40
2019-03-30T10:14:00.525Z,37.10
2019-03-30T10:16:31.781Z,36.30
2019-03-30T10:19:04.500Z,33.80
2019-03-30T10:21:35.918Z,35.50
2019-03-30T10:24:07.138Z,36.80
2019-03-30T10:26:38.336Z,35.00
2019-03-30T10:29:09.581Z,34.00
2019-03-30T10:31:41.235Z,33.60
2019-03-30T10:34:12.642Z,31.30
2019-03-30T10:36:43.938Z,29.60
2019-03-30T10:39:18.710Z,30.20
2019-03-30T10:41:50.471Z,32.20
2019-03-30T10:44:22.145Z,34.00
2019-03-30T10:46:53.586Z,35.20
2019-03-30T10:49:24.814Z,35.80
2019-03-30T10:51:55.867Z,33.70
2019-03-30T10:54:27.082Z,31.40
2019-03-30T10:56:58.930Z,29.80
2019-03-30T10:59:30.750Z,30.00
2019-03-30T11:02:05.016Z,29.60
2019-03-30T11:04:37.716Z,28.20
2019-03-30T11:07:09.439Z,28.30
2019-03-30T11:09:41.134Z,28.10
2019-03-30T11:12:12.674Z,27.70
2019-03-30T11:14:44.142Z,27.70
2019-03-30T11:17:19.335Z,26.80
2019-03-30T11:19:50.179Z,25.20
2019-03-30T11:22:21.746Z,24.80
2019-03-30T11:25:06.261Z,24.50
2019-03-30T11:27:26.328Z,24.10
2019-03-30T11:29:57.582Z,24.50
2019-03-30T11:32:29.256Z,23.70
2019-03-30T11:35:00.677Z,24.80
2019-03-30T11:37:32.113Z,25.00
2019-03-30T11:40:03.780Z,25.50
2019-03-30T11:42:35.542Z,23.90
2019-03-30T11:45:07.122Z,25.00
2019-03-30T11:47:38.443Z,25.40
2019-03-30T11:50:10.196Z,26.60
2019-03-30T11:52:41.812Z,27.00
2019-03-30T11:55:21.633Z,27.90
2019-03-30T11:57:48.010Z,27.80
2019-03-30T12:00:19.514Z,28.40
2019-03-30T12:02:50.769Z,28.80
2019-03-30T12:05:22.321Z,29.70
2019-03-30T12:07:54.020Z,30.50
2019-03-30T12:10:25.742Z,31.70
2019-03-30T12:12:56.996Z,32.30
2019-03-30T12:15:28.261Z,32.70
2019-03-30T12:17:59.846Z,34.50
2019-03-30T12:20:31.338Z,35.30
2019-03-30T12:23:03.202Z,35.70
2019-03-30T12:25:35.864Z,36.40
2019-03-30T12:28:11.150Z,36.90
2019-03-30T12:30:42.761Z,37.50
2019-03-30T12:33:14.110Z,37.60
2019-03-30T12:35:49.015Z,37.70
2019-03-30T12:38:20.438Z,38.40
2019-03-30T12:40:54.067Z,38.30
2019-03-30T12:43:25.251Z,38.50
2019-03-30T12:45:57.152Z,38.60
2019-03-30T12:48:28.481Z,38.60
2019-03-30T12:50:59.580Z,38.80
2019-03-30T12:53:30.991Z,39.20
2019-03-30T12:56:02.785Z,39.00
2019-03-30T12:58:33.975Z,39.90
2019-03-30T13:01:05.932Z,39.60
2019-03-30T13:03:37.324Z,40.20
2019-03-30T13:06:08.763Z,40.90
2019-03-30T13:08:40.359Z,40.40
2019-03-30T13:11:12.215Z,40.50
2019-03-30T13:13:43.860Z,41.20
2019-03-30T13:16:15.317Z,41.10
2019-03-30T13:18:47.685Z,41.30
2019-03-30T13:21:19.162Z,41.80
2019-03-30T13:23:50.590Z,42.10
2019-03-30T13:26:23.194Z,42.10
2019-03-30T13:28:55.066Z,42.60
2019-03-30T13:31:26.453Z,42.00
2019-03-30T13:33:57.678Z,42.30
2019-03-30T13:36:42.278Z,42.70
2019-03-30T13:39:13.644Z,42.80
2019-03-30T13:41:44.896Z,43.50
2019-03-30T13:44:16.086Z,43.60
2019-03-30T13:46:47.510Z,43.50
2019-03-30T13:49:18.783Z,43.70
2019-03-30T13:51:50.194Z,43.90
2019-03-30T13:54:22.102Z,44.30
2019-03-30T13:56:53.310Z,44.70
2019-03-30T13:59:24.801Z,44.60
2019-03-30T14:01:56.148Z,44.80
2019-03-30T14:04:27.424Z,45.10
2019-03-30T14:06:59.048Z,45.50
2019-03-30T14:09:30.255Z,45.60
2019-03-30T14:12:01.905Z,45.80
2019-03-30T14:14:33.779Z,46.50
2019-03-30T14:17:05.392Z,46.80
2019-03-30T14:19:36.990Z,46.80
2019-03-30T14:22:08.401Z,47.00
2019-03-30T14:24:39.579Z,47.30
2019-03-30T14:27:11.263Z,47.60
2019-03-30T14:29:43.078Z,47.90
2019-03-30T14:32:14.529Z,48.20
2019-03-30T14:34:45.666Z,48.40
2019-03-30T14:37:17.082Z,48.40
2019-03-30T14:39:48.602Z,48.60
2019-03-30T14:42:20.736Z,48.90
2019-03-30T14:44:52.420Z,49.10
2019-03-30T14:47:23.559Z,49.40
2019-03-30T14:49:55.045Z,49.40
2019-03-30T14:52:26.530Z,49.70
2019-03-30T14:54:57.724Z,49.90
2019-03-30T14:57:29.014Z,50.20
2019-03-30T15:00:00.666Z,50.70
2019-03-30T15:02:32.083Z,50.90
2019-03-30T15:05:03.378Z,51.00
2019-03-30T15:07:34.587Z,51.10
2019-03-30T15:10:07.053Z,51.10
2019-03-30T15:12:38.683Z,51.40
2019-03-30T15:15:10.951Z,51.30
2019-03-30T15:17:42.204Z,51.60
2019-03-30T15:20:14.145Z,51.90
2019-03-30T15:22:45.407Z,51.90
2019-03-30T15:25:16.858Z,51.80
2019-03-30T15:27:49.436Z,52.00
2019-03-30T15:30:20.700Z,52.30
2019-03-30T15:32:52.096Z,52.50
2019-03-30T15:35:23.603Z,52.80
2019-03-30T15:37:55.220Z,52.70
2019-03-30T15:40:26.903Z,52.90
2019-03-30T15:42:58.533Z,53.10
2019-03-30T15:45:29.771Z,53.00
2019-03-30T15:48:01.106Z,54.10
2019-03-30T15:50:33.190Z,54.10
2019-03-30T15:53:05.555Z,53.80
2019-03-30T15:55:37.131Z,54.10
2019-03-30T15:58:08.570Z,54.30
2019-03-30T16:00:39.668Z,54.40
2019-03-30T16:03:10.888Z,54.60
2019-03-30T16:05:42.238Z,54.70
2019-03-30T16:08:13.750Z,55.00
2019-03-30T16:10:44.882Z,55.20
2019-03-30T16:13:16.459Z,55.50
2019-03-30T16:15:47.852Z,55.40
2019-03-30T16:18:20.126Z,55.70
2019-03-30T16:20:52.057Z,55.70
2019-03-30T16:23:23.414Z,55.70
2019-03-30T16:25:54.874Z,56.10
2019-03-30T16:28:27.142Z,56.00
2019-03-30T16:30:58.561Z,56.10
2019-03-30T16:33:29.922Z,56.40
2019-03-30T16:36:02.775Z,56.50
2019-03-30T16:38:34.587Z,56.90
2019-03-30T16:41:05.741Z,57.20
2019-03-30T16:43:37.110Z,57.40
2019-03-30T16:46:08.506Z,57.60
2019-03-30T16:48:39.766Z,57.70
2019-03-30T16:51:11.123Z,58.10
2019-03-30T16:53:42.551Z,58.00
2019-03-30T16:56:13.777Z,58.10
2019-03-30T16:58:45.499Z,58.30
2019-03-30T17:01:16.653Z,58.50
2019-03-30T17:03:47.802Z,58.60
2019-03-30T17:06:20.297Z,58.80
2019-03-30T17:08:51.578Z,58.90
2019-03-30T17:11:22.992Z,59.20
2019-03-30T17:13:54.891Z,59.00
2019-03-30T17:16:26.302Z,59.50
2019-03-30T17:18:57.721Z,59.60
2019-03-30T17:21:28.869Z,60.40
2019-03-30T17:24:03.453Z,59.90
2019-03-30T17:26:35.095Z,59.90
2019-03-30T17:29:06.418Z,59.30
2019-03-30T17:31:38.070Z,60.00
2019-03-30T17:34:09.715Z,60.20
2019-03-30T17:36:41.279Z,60.30
2019-03-30T17:39:13.695Z,60.20
2019-03-30T17:41:45.244Z,60.60
2019-03-30T17:44:16.662Z,61.40
2019-03-30T17:46:48.158Z,60.80
2019-03-30T17:49:20.074Z,61.10
2019-03-30T17:51:53.977Z,61.00
2019-03-30T17:54:24.679Z,61.00
2019-03-30T17:56:56.203Z,61.20
2019-03-30T17:59:27.683Z,61.10
2019-03-30T18:01:59.057Z,61.10
2019-03-30T18:04:30.357Z,61.40
2019-03-30T18:07:01.923Z,61.40
2019-03-30T18:09:33.475Z,61.40
2019-03-30T18:12:04.931Z,61.20
2019-03-30T18:14:36.430Z,61.60
2019-03-30T18:17:08.029Z,61.30
2019-03-30T18:19:39.592Z,61.30
2019-03-30T18:22:11.034Z,61.20
2019-03-30T18:24:42.719Z,61.30
2019-03-30T18:27:14.460Z,61.10
2019-03-30T18:29:46.867Z,61.00
2019-03-30T18:32:18.569Z,60.90
2019-03-30T18:34:50.671Z,61.10
2019-03-30T18:37:22.405Z,61.20
2019-03-30T18:39:53.851Z,61.10
2019-03-30T18:42:25.897Z,60.90
2019-03-30T18:45:00.013Z,61.00
2019-03-30T18:47:31.131Z,61.10
2019-03-30T18:50:03.987Z,61.50
2019-03-30T18:52:36.101Z,61.80
2019-03-30T18:55:08.507Z,61.80
2019-03-30T18:57:40.318Z,62.00
2019-03-30T19:00:15.566Z,62.10
2019-03-30T19:02:47.070Z,62.10
2019-03-30T19:05:18.327Z,62.40
2019-03-30T19:07:49.511Z,62.60
2019-03-30T19:10:20.901Z,62.70
2019-03-30T19:12:53.543Z,63.30
2019-03-30T19:15:25.389Z,63.30
2019-03-30T19:17:56.848Z,63.40
2019-03-30T19:20:28.094Z,63.70
2019-03-30T19:22:59.430Z,63.70
2019-03-30T19:25:31.066Z,64.30
2019-03-30T19:28:02.611Z,64.40
2019-03-30T19:30:33.945Z,64.50
2019-03-30T19:33:05.493Z,64.80
2019-03-30T19:35:36.981Z,65.40
2019-03-30T19:38:10.924Z,65.80
2019-03-30T19:40:41.797Z,66.00
2019-03-30T19:43:13.258Z,66.20
2019-03-30T19:45:44.692Z,67.00
2019-03-30T19:48:16.335Z,67.30
2019-03-30T19:50:47.774Z,67.30
2019-03-30T19:53:19.039Z,67.90
2019-03-30T19:55:50.054Z,67.80
2019-03-30T19:58:21.656Z,67.90
2019-03-30T20:00:54.262Z,68.60
2019-03-30T20:03:26.621Z,68.60
2019-03-30T20:05:58.200Z,68.70
2019-03-30T20:08:29.812Z,68.70
2019-03-30T20:11:01.089Z,68.90
2019-03-30T20:13:32.403Z,69.50
2019-03-30T20:16:03.902Z,69.50
2019-03-30T20:18:36.579Z,69.90
2019-03-30T20:21:08.215Z,70.30
2019-03-30T20:23:39.477Z,70.60
2019-03-30T20:26:10.924Z,70.70
2019-03-30T20:28:42.159Z,70.70
2019-03-30T20:31:13.759Z,71.00
2019-03-30T20:33:45.539Z,71.10
2019-03-30T20:36:16.851Z,71.40
2019-03-30T20:38:47.945Z,71.80
2019-03-30T20:41:19.622Z,72.30
2019-03-30T20:43:50.788Z,73.30
2019-03-30T20:46:22.481Z,72.60
2019-03-30T20:48:54.304Z,72.70
2019-03-30T20:51:26.519Z,72.50
2019-03-30T20:53:58.161Z,72.80
2019-03-30T20:56:29.567Z,72.50
2019-03-30T20:59:00.802Z,72.90
2019-03-30T21:01:32.186Z,73.40
2019-03-30T21:04:03.329Z,73.80
2019-03-30T21:06:34.986Z,73.80
2019-03-30T21:09:08.027Z,73.80
2019-03-30T21:11:39.258Z,73.80
2019-03-30T21:14:10.532Z,73.70
2019-03-30T21:16:42.004Z,73.80
2019-03-30T21:19:13.474Z,74.00
2019-03-30T21:21:44.842Z,74.00
2019-03-30T21:24:16.406Z,74.40
2019-03-30T21:26:48.168Z,74.70
2019-03-30T21:29:19.359Z,74.20
2019-03-30T21:31:51.372Z,74.50
2019-03-30T21:34:24.000Z,74.50
2019-03-30T21:36:55.788Z,74.50
2019-03-30T21:39:27.318Z,74.50
2019-03-30T21:41:58.763Z,74.70
2019-03-30T21:44:29.946Z,76.10
2019-03-30T21:47:01.439Z,76.80
2019-03-30T21:49:32.844Z,77.10
2019-03-30T21:52:04.521Z,77.80
2019-03-30T21:54:36.054Z,78.00
2019-03-30T21:57:07.534Z,78.40
2019-03-30T21:59:38.639Z,78.90
2019-03-30T22:02:10.074Z,78.40
2019-03-30T22:04:41.627Z,78.90
2019-03-30T22:07:13.274Z,79.30
2019-03-30T22:09:44.474Z,80.00
2019-03-30T22:12:15.911Z,79.60
2019-03-30T22:14:47.303Z,79.90
2019-03-30T22:17:20.372Z,80.10
2019-03-30T22:19:51.743Z,80.20
2019-03-30T22:22:23.002Z,80.10
2019-03-30T22:24:54.356Z,80.40
2019-03-30T22:27:25.805Z,80.80
2019-03-30T22:29:57.463Z,80.90
2019-03-30T22:32:29.958Z,81.40
2019-03-30T22:35:02.305Z,81.40
2019-03-30T22:37:33.794Z,81.60
2019-03-30T22:40:05.778Z,81.80
2019-03-30T22:42:37.292Z,81.90
2019-03-30T22:45:09.659Z,82.30
2019-03-30T22:47:41.147Z,82.40
2019-03-30T22:50:12.778Z,82.70
2019-03-30T22:52:44.635Z,82.90
2019-03-30T22:55:15.900Z,83.30
2019-03-30T22:57:47.399Z,83.50
2019-03-30T23:00:39.514Z,83.70
2019-03-30T23:03:13.320Z,83.80
2019-03-30T23:05:44.897Z,84.10
2019-03-30T23:08:16.128Z,84.60
2019-03-30T23:10:47.705Z,84.80
2019-03-30T23:13:19.196Z,84.50
2019-03-30T23:15:50.934Z,85.20
2019-03-30T23:18:22.336Z,85.20
2019-03-30T23:20:54.150Z,85.40
2019-03-30T23:23:25.472Z,85.60
2019-03-30T23:25:57.186Z,85.60
2019-03-30T23:28:28.619Z,86.00
2019-03-30T23:30:59.993Z,86.00
2019-03-30T23:33:31.545Z,85.90
2019-03-30T23:36:03.302Z,86.00
2019-03-30T23:38:35.246Z,86.00
2019-03-30T23:41:06.788Z,86.60
2019-03-30T23:43:38.281Z,86.50
2019-03-30T23:46:09.447Z,86.90
2019-03-30T23:48:40.865Z,86.80
2019-03-30T23:51:12.297Z,86.70
2019-03-30T23:53:43.964Z,86.80
2019-03-30T23:56:23.176Z,86.90
2019-03-30T23:58:54.593Z,87.10
